Terminal Aerodrome Forecast
Issued by NWS

Current Version | Previous Version | Graphics & Text | Print | Product List | Glossary On
Versions: 1 2 3 4 5 6 7 8 9 10 11 12 13 14 15 16 17 18 19
000
FTUS41 KILN 241700 RRA
TAFLUK
TAF
KLUK 241740Z 2418/2518 24007KT P6SM SKC
     FM241900 26010KT P6SM SCT018 BKN035
      TEMPO 2419/2421 BKN018
     FM242200 25007KT P6SM SCT250
     FM250700 21005KT P6SM OVC150
     FM251500 15005KT P6SM FEW015 SCT040 OVC100
      TEMPO 2517/2518 5SM -RA SCT015 OVC030=

USA.gov is the U.S. government's official web portal to all federal, state and local government web resources and services.